This is the latest recevied weather packets stored in our database for station/object HJ3GNC-15. If no packets are shown the sender has not sent any weather packets the latest 10 day(s).
| Time | Temp. | Humidity | Pressure | Rain* | Wind** | Luminosity | Snow |
|---|---|---|---|---|---|---|---|
| 1777907401 | 17.78° C | 72% | 1015 hPa | 0 mm | - | - | - |
| 1777906106 | 18.33° C | 70% | 1015 hPa | 0 mm | - | - | - |
| 1777905033 | 18.33° C | 70% | 1015 hPa | 0 mm | - | - | - |
| 1777903972 | 17.22° C | 71% | 1015 hPa | 0 mm | - | - | - |
| 1777902644 | 17.22° C | 70% | 1015 hPa | 0 mm | - | - | - |
| 1777901457 | 17.22° C | 70% | 1015 hPa | 0 mm | - | - | - |
| 1777900350 | 15.56° C | 81% | 1015 hPa | 0 mm | - | - | - |
| 1777899242 | 15.56° C | 80% | 1015 hPa | 0 mm | - | - | - |
| 1777898049 | 15.56° C | 80% | 1015 hPa | 0 mm | - | - | - |
| 1777896782 | 14.44° C | 88% | 1015 hPa | 0 mm | - | - | - |
| 1777895582 | 14.44° C | 89% | 1015 hPa | 0 mm | - | - | - |
| 1777894437 | 14.44° C | 89% | 1015 hPa | 0 mm | - | - | - |
| 1777893284 | 13.33° C | 92% | 1015 hPa | 0 mm | - | - | - |
| 1777891121 | 13.33° C | 92% | 1015 hPa | 0 mm | - | - | - |
| 1777890107 | 13.33° C | 92% | 1015 hPa | 0 mm | - | - | - |
| 1777889085 | 13.33° C | 90% | 1015 hPa | 0 mm | - | - | - |
| 1777888115 | 13.33° C | 91% | 1015 hPa | 0 mm | - | - | - |
| 1777887158 | 13.33° C | 91% | 1015 hPa | 0 mm | - | - | - |
| 1777886201 | 13.33° C | 91% | 1014 hPa | 0 mm | - | - | - |
| 1777885246 | 13.33° C | 92% | 1014 hPa | 0 mm | - | - | - |
| 1777884302 | 13.33° C | 92% | 1014 hPa | 0 mm | - | - | - |
| 1777883359 | 13.89° C | 91% | 1014 hPa | 0 mm | - | - | - |
| 1777882412 | 13.89° C | 89% | 1014 hPa | 0 mm | - | - | - |
| 1777881466 | 13.89° C | 91% | 1014 hPa | 0 mm | - | - | - |
| 1777880523 | 13.89° C | 91% | 1014 hPa | 0 mm | - | - | - |
* Rain latest hour (hover to see other rain measurements)
** Current wind speed in m/s (hover to see current wind gust speed)